createdAt,value
2022-09-07T00:00:58.458Z,99.90
2022-09-07T00:03:26.693Z,99.90
2022-09-07T00:05:54.844Z,99.90
2022-09-07T00:08:25.115Z,99.90
2022-09-07T00:10:54.892Z,99.90
2022-09-07T00:13:23.736Z,99.90
2022-09-07T00:15:53.216Z,99.90
2022-09-07T00:18:21.522Z,99.90
2022-09-07T00:20:59.258Z,99.90
2022-09-07T00:23:28.829Z,99.90
2022-09-07T00:26:01.659Z,99.90
2022-09-07T00:28:30.292Z,99.90
2022-09-07T00:31:00.023Z,99.90
2022-09-07T00:33:28.549Z,99.90
2022-09-07T00:35:56.911Z,99.90
2022-09-07T00:38:25.214Z,99.90
2022-09-07T00:40:53.390Z,99.90
2022-09-07T00:43:32.530Z,99.90
2022-09-07T00:46:02.591Z,99.90
2022-09-07T00:48:35.714Z,99.90
2022-09-07T00:51:07.744Z,99.90
2022-09-07T00:53:39.917Z,99.90
2022-09-07T00:56:08.951Z,99.90
2022-09-07T00:58:38.934Z,99.90
2022-09-07T01:01:09.726Z,99.90
2022-09-07T01:03:41.458Z,99.90
2022-09-07T01:06:16.345Z,99.90
2022-09-07T01:08:45.130Z,99.90
2022-09-07T01:11:13.832Z,99.90
2022-09-07T01:13:44.579Z,99.90
2022-09-07T01:16:35.121Z,99.90
2022-09-07T01:19:20.269Z,99.90
2022-09-07T01:21:59.520Z,99.90
2022-09-07T01:24:42.381Z,99.90
2022-09-07T01:27:50.345Z,99.90
2022-09-07T01:30:21.612Z,99.90
2022-09-07T01:33:19.898Z,99.90
2022-09-07T01:35:55.334Z,99.90
2022-09-07T01:38:31.380Z,99.90
2022-09-07T01:41:05.467Z,99.90
2022-09-07T01:43:41.333Z,99.90
2022-09-07T01:46:19.735Z,99.90
2022-09-07T01:48:52.222Z,99.90
2022-09-07T01:51:21.429Z,99.90
2022-09-07T01:53:54.012Z,99.90
2022-09-07T01:56:25.431Z,99.90
2022-09-07T01:58:57.692Z,99.90
2022-09-07T02:01:33.113Z,99.90
2022-09-07T02:04:06.058Z,99.90
2022-09-07T02:06:42.258Z,99.90
2022-09-07T02:09:15.502Z,99.90
2022-09-07T02:11:47.676Z,99.90
2022-09-07T02:14:20.958Z,99.90
2022-09-07T02:16:58.085Z,99.90
2022-09-07T02:19:29.758Z,99.90
2022-09-07T02:22:01.812Z,99.90
2022-09-07T02:24:35.230Z,99.90
2022-09-07T02:27:06.557Z,99.90
2022-09-07T02:29:34.781Z,99.90
2022-09-07T02:32:04.819Z,99.90
2022-09-07T02:34:33.733Z,99.90
2022-09-07T02:37:05.441Z,99.90
2022-09-07T02:39:35.003Z,99.90
2022-09-07T02:42:03.161Z,99.90
2022-09-07T02:44:34.736Z,99.90
2022-09-07T02:47:15.606Z,99.90
2022-09-07T02:50:19.246Z,99.90
2022-09-07T02:52:59.674Z,99.90
2022-09-07T02:55:40.059Z,99.90
2022-09-07T02:58:19.525Z,99.90
2022-09-07T03:01:00.244Z,99.90
2022-09-07T03:03:38.896Z,99.90
2022-09-07T03:06:13.395Z,99.90
2022-09-07T03:08:46.353Z,99.90
2022-09-07T03:11:15.255Z,99.90
2022-09-07T03:13:43.401Z,99.90
2022-09-07T03:16:14.243Z,99.90
2022-09-07T03:18:44.982Z,99.90
2022-09-07T03:21:13.151Z,99.90
2022-09-07T03:23:41.201Z,99.90
2022-09-07T03:26:16.361Z,99.90
2022-09-07T03:28:44.410Z,99.90
2022-09-07T03:31:12.844Z,99.90
2022-09-07T03:33:40.899Z,99.90
2022-09-07T03:36:10.496Z,99.90
2022-09-07T03:38:38.620Z,99.90
2022-09-07T03:41:08.242Z,99.90
2022-09-07T03:43:36.976Z,99.90
2022-09-07T03:46:07.217Z,99.90
2022-09-07T03:48:36.503Z,99.90
2022-09-07T03:51:06.896Z,99.90
2022-09-07T03:53:37.776Z,99.90
2022-09-07T03:56:08.344Z,99.90
2022-09-07T03:58:37.110Z,99.90
2022-09-07T04:01:08.419Z,99.90
2022-09-07T04:03:36.789Z,99.90
2022-09-07T04:06:05.906Z,99.90
2022-09-07T04:08:37.222Z,99.90
2022-09-07T04:11:07.012Z,99.90
2022-09-07T04:13:37.006Z,99.90
2022-09-07T04:16:11.993Z,99.90
2022-09-07T04:18:39.986Z,99.90
2022-09-07T04:21:08.324Z,99.90
2022-09-07T04:23:38.807Z,99.90
2022-09-07T04:26:07.179Z,99.90
2022-09-07T04:28:35.261Z,99.90
2022-09-07T04:31:03.745Z,99.90
2022-09-07T04:33:32.753Z,99.90
2022-09-07T04:36:01.785Z,99.90
2022-09-07T04:38:31.852Z,99.90
2022-09-07T04:41:02.338Z,99.90
2022-09-07T04:43:30.911Z,99.90
2022-09-07T04:45:59.323Z,99.90
2022-09-07T04:48:27.381Z,99.90
2022-09-07T04:50:55.366Z,99.90
2022-09-07T04:53:23.464Z,99.90
2022-09-07T04:55:51.474Z,99.90
2022-09-07T04:58:20.994Z,99.90
2022-09-07T05:00:49.042Z,99.90
2022-09-07T05:03:17.125Z,99.90
2022-09-07T05:05:45.148Z,99.90
2022-09-07T05:08:13.879Z,99.90
2022-09-07T05:10:51.188Z,99.90
2022-09-07T05:13:20.714Z,99.90
2022-09-07T05:15:48.855Z,99.90
2022-09-07T05:18:16.916Z,99.90
2022-09-07T05:20:45.003Z,99.90
2022-09-07T05:23:13.092Z,99.90
2022-09-07T05:25:44.597Z,99.90
2022-09-07T05:28:15.959Z,99.90
2022-09-07T05:36:26.865Z,99.90
2022-09-07T05:38:55.588Z,99.90
2022-09-07T05:41:25.391Z,99.90
2022-09-07T05:46:43.717Z,99.90
2022-09-07T05:49:11.884Z,99.90
2022-09-07T05:51:39.886Z,99.90
2022-09-07T05:54:08.084Z,99.90
2022-09-07T05:56:36.481Z,99.90
2022-09-07T05:59:05.049Z,99.90
2022-09-07T06:01:35.264Z,99.90
2022-09-07T06:04:04.964Z,99.90
2022-09-07T06:06:33.112Z,99.90
2022-09-07T06:09:01.092Z,99.90
2022-09-07T06:11:29.212Z,99.90
2022-09-07T06:13:57.308Z,99.90
2022-09-07T06:16:25.464Z,99.90
2022-09-07T06:18:53.804Z,99.90
2022-09-07T06:21:24.781Z,99.90
2022-09-07T06:23:53.254Z,99.90
2022-09-07T06:26:21.292Z,99.90
2022-09-07T06:28:52.881Z,99.90
2022-09-07T06:31:24.393Z,99.90
2022-09-07T06:33:53.123Z,99.90
2022-09-07T06:36:24.315Z,99.90
2022-09-07T06:38:52.968Z,99.90
2022-09-07T06:44:11.527Z,99.90
2022-09-07T06:49:27.691Z,99.90
2022-09-07T06:51:57.182Z,99.90
2022-09-07T06:57:13.666Z,99.90
2022-09-07T06:59:41.722Z,99.90
2022-09-07T07:02:15.009Z,99.90
2022-09-07T07:04:43.156Z,99.90
2022-09-07T07:07:13.894Z,99.90
2022-09-07T07:09:42.603Z,99.90
2022-09-07T07:12:10.676Z,99.90
2022-09-07T07:14:44.096Z,99.90
2022-09-07T07:17:13.011Z,99.90
2022-09-07T07:19:41.065Z,99.90
2022-09-07T07:22:45.478Z,99.90
2022-09-07T07:24:58.798Z,99.90
2022-09-07T07:27:27.194Z,99.90
2022-09-07T07:29:55.258Z,99.90
2022-09-07T07:32:23.635Z,99.70
2022-09-07T07:34:51.629Z,99.60
2022-09-07T07:37:19.648Z,99.60
2022-09-07T07:42:39.710Z,99.50
2022-09-07T07:47:57.093Z,99.20
2022-09-07T07:50:33.004Z,99.20
2022-09-07T07:55:49.926Z,99.30
2022-09-07T07:58:19.523Z,99.40
2022-09-07T08:00:56.201Z,99.60
2022-09-07T08:03:25.558Z,99.40
2022-09-07T08:05:53.851Z,99.40
2022-09-07T08:08:23.135Z,99.30
2022-09-07T08:10:51.538Z,99.10
2022-09-07T08:13:21.456Z,99.10
2022-09-07T08:15:49.710Z,98.80
2022-09-07T08:18:18.946Z,98.60
2022-09-07T08:20:46.909Z,98.30
2022-09-07T08:23:15.247Z,98.30
2022-09-07T08:25:51.482Z,97.90
2022-09-07T08:28:21.589Z,97.80
2022-09-07T08:30:49.503Z,97.50
2022-09-07T08:33:17.423Z,97.30
2022-09-07T08:35:56.027Z,97.50
2022-09-07T08:38:24.037Z,97.70
2022-09-07T08:40:52.392Z,97.70
2022-09-07T08:43:31.243Z,97.20
2022-09-07T08:46:05.263Z,97.10
2022-09-07T08:48:35.408Z,97.10
2022-09-07T08:51:10.480Z,97.10
2022-09-07T08:53:45.107Z,97.10
2022-09-07T08:56:19.035Z,97.00
2022-09-07T08:58:51.138Z,96.90
2022-09-07T09:01:37.084Z,97.20
2022-09-07T09:04:16.705Z,97.00
2022-09-07T09:06:55.497Z,97.30
2022-09-07T09:09:30.604Z,97.10
2022-09-07T09:12:09.089Z,97.30
2022-09-07T09:14:48.299Z,97.10
2022-09-07T09:17:27.147Z,97.30
2022-09-07T09:20:05.531Z,97.40
2022-09-07T09:22:33.498Z,97.30
2022-09-07T09:25:05.746Z,97.20
2022-09-07T09:27:33.630Z,97.20
2022-09-07T09:30:03.033Z,97.60
2022-09-07T09:32:36.237Z,98.00
2022-09-07T09:35:13.565Z,97.90
2022-09-07T09:37:43.594Z,98.10
2022-09-07T09:40:25.050Z,98.50
2022-09-07T09:43:02.155Z,98.40
2022-09-07T09:46:12.132Z,98.50
2022-09-07T09:48:30.730Z,98.30
2022-09-07T09:53:58.134Z,98.00
2022-09-07T09:56:40.749Z,97.80
2022-09-07T10:05:27.960Z,98.00
2022-09-07T10:07:56.263Z,98.00
2022-09-07T10:10:24.830Z,97.70
2022-09-07T10:12:55.158Z,97.90
2022-09-07T10:15:39.254Z,97.80
2022-09-07T10:18:19.330Z,97.70
2022-09-07T10:20:47.222Z,97.70
2022-09-07T10:23:23.023Z,97.50
2022-09-07T10:25:51.178Z,97.30
2022-09-07T10:28:21.159Z,97.50
2022-09-07T10:31:15.013Z,97.30
2022-09-07T10:36:45.816Z,97.20
2022-09-07T10:39:18.210Z,97.20
2022-09-07T10:41:55.469Z,97.10
2022-09-07T10:44:32.766Z,97.10
2022-09-07T10:47:04.590Z,96.90
2022-09-07T10:50:22.006Z,97.10
2022-09-07T10:52:42.567Z,97.30
2022-09-07T10:55:16.401Z,96.70
2022-09-07T10:57:57.741Z,96.70
2022-09-07T11:00:26.172Z,96.70
2022-09-07T11:06:09.523Z,96.30
2022-09-07T11:14:35.329Z,96.70
2022-09-07T11:17:07.062Z,96.90
2022-09-07T11:19:42.197Z,96.40
2022-09-07T11:22:23.968Z,96.30
2022-09-07T11:27:50.661Z,96.40
2022-09-07T11:30:21.633Z,96.40
2022-09-07T11:32:56.355Z,96.20
2022-09-07T11:35:36.112Z,97.10
2022-09-07T11:38:14.733Z,96.60
2022-09-07T11:40:49.220Z,96.50
2022-09-07T11:43:21.629Z,95.70
2022-09-07T11:45:53.733Z,95.80
2022-09-07T11:48:30.347Z,95.40
2022-09-07T11:51:01.984Z,94.60
2022-09-07T11:53:34.468Z,94.80
2022-09-07T11:56:07.359Z,94.30
2022-09-07T11:58:52.782Z,94.20
2022-09-07T12:01:33.313Z,93.90
2022-09-07T12:04:31.057Z,94.50
2022-09-07T12:07:37.997Z,93.90
2022-09-07T12:10:27.314Z,93.90
2022-09-07T12:13:08.568Z,94.10
2022-09-07T12:15:47.870Z,94.50
2022-09-07T12:18:35.104Z,94.40
2022-09-07T12:21:03.046Z,93.40
2022-09-07T12:23:32.021Z,93.30
2022-09-07T12:26:36.467Z,93.20
2022-09-07T12:29:18.508Z,92.60
2022-09-07T12:35:00.793Z,92.70
2022-09-07T12:37:44.473Z,92.80
2022-09-07T12:40:59.682Z,92.60
2022-09-07T12:44:11.098Z,92.40
2022-09-07T12:46:46.958Z,91.70
2022-09-07T12:49:47.034Z,89.00
2022-09-07T12:52:46.613Z,90.50
2022-09-07T12:55:28.728Z,88.90
2022-09-07T12:58:14.905Z,89.90
2022-09-07T13:00:56.381Z,87.80
2022-09-07T13:03:50.112Z,90.20
2022-09-07T13:09:34.826Z,89.50
2022-09-07T13:15:12.677Z,87.20
2022-09-07T13:17:55.333Z,89.00
2022-09-07T13:20:37.619Z,88.40
2022-09-07T13:23:24.109Z,88.40
2022-09-07T13:25:54.994Z,89.30
2022-09-07T13:28:41.005Z,90.20
2022-09-07T13:31:25.009Z,90.00
2022-09-07T13:33:54.196Z,90.40
2022-09-07T13:36:46.248Z,90.20
2022-09-07T13:39:17.604Z,89.80
2022-09-07T13:41:49.804Z,88.90
2022-09-07T13:44:25.890Z,88.60
2022-09-07T13:47:18.373Z,87.60
2022-09-07T13:50:00.533Z,86.40
2022-09-07T13:52:39.642Z,84.40
2022-09-07T13:55:25.755Z,86.70
2022-09-07T13:58:11.628Z,87.40
2022-09-07T14:00:51.627Z,86.50
2022-09-07T14:03:19.949Z,87.60
2022-09-07T14:05:47.917Z,88.30
2022-09-07T14:08:27.968Z,86.80
2022-09-07T14:10:55.810Z,87.40
2022-09-07T14:13:23.860Z,84.30
2022-09-07T14:15:52.438Z,84.50
2022-09-07T14:18:32.828Z,85.00
2022-09-07T14:21:01.138Z,83.50
2022-09-07T14:23:32.680Z,83.90
2022-09-07T14:26:18.084Z,83.50
2022-09-07T14:28:47.955Z,81.00
2022-09-07T14:31:18.172Z,79.80
2022-09-07T14:33:51.112Z,78.40
2022-09-07T14:36:43.576Z,80.60
2022-09-07T14:39:13.280Z,82.00
2022-09-07T14:41:42.109Z,81.00
2022-09-07T14:44:28.650Z,79.20
2022-09-07T14:46:57.440Z,79.00
2022-09-07T14:49:25.971Z,75.00
2022-09-07T14:51:55.546Z,76.40
2022-09-07T14:54:28.568Z,75.70
2022-09-07T14:57:25.684Z,75.70
2022-09-07T14:59:54.936Z,70.80
2022-09-07T15:02:27.266Z,72.80
2022-09-07T15:05:18.229Z,70.70
2022-09-07T15:07:51.081Z,70.60
2022-09-07T15:10:35.227Z,71.60
2022-09-07T15:13:04.176Z,70.50
2022-09-07T15:15:34.369Z,69.50
2022-09-07T15:18:08.707Z,71.60
2022-09-07T15:20:39.701Z,71.30
2022-09-07T15:23:11.200Z,70.00
2022-09-07T15:25:43.270Z,72.80
2022-09-07T15:34:02.017Z,69.60
2022-09-07T15:36:31.986Z,71.00
2022-09-07T15:39:00.734Z,71.20
2022-09-07T15:41:30.533Z,70.80
2022-09-07T15:43:58.641Z,71.80
2022-09-07T15:46:26.967Z,70.90
2022-09-07T15:48:56.791Z,69.00
2022-09-07T15:54:14.743Z,69.00
2022-09-07T15:57:48.316Z,69.50
2022-09-07T15:59:32.493Z,70.10
2022-09-07T16:02:00.673Z,70.50
2022-09-07T16:04:29.102Z,68.80
2022-09-07T16:06:57.065Z,66.80
2022-09-07T16:09:25.053Z,66.50
2022-09-07T16:11:54.531Z,66.80
2022-09-07T16:14:22.968Z,68.10
2022-09-07T16:19:40.970Z,69.70
2022-09-07T16:22:09.661Z,70.00
2022-09-07T16:24:37.845Z,71.10
2022-09-07T16:27:08.341Z,71.70
2022-09-07T16:29:36.547Z,72.40
2022-09-07T16:34:52.919Z,75.10
2022-09-07T16:37:20.895Z,76.20
2022-09-07T16:39:49.763Z,76.90
2022-09-07T16:42:19.247Z,74.90
2022-09-07T16:44:47.230Z,75.80
2022-09-07T16:47:15.222Z,77.50
2022-09-07T16:49:43.100Z,77.10
2022-09-07T16:52:11.087Z,78.10
2022-09-07T16:54:39.083Z,78.20
2022-09-07T16:57:07.082Z,78.30
2022-09-07T16:59:36.286Z,78.00
2022-09-07T17:02:04.336Z,78.00
2022-09-07T17:04:32.773Z,78.30
2022-09-07T17:07:00.817Z,79.70
2022-09-07T17:09:29.068Z,80.40
2022-09-07T17:11:57.427Z,80.00
2022-09-07T17:14:25.353Z,80.70
2022-09-07T17:16:55.892Z,81.20
2022-09-07T17:19:31.516Z,81.60
2022-09-07T17:22:00.205Z,82.20
2022-09-07T17:24:29.660Z,82.40
2022-09-07T17:26:59.808Z,82.80
2022-09-07T17:29:37.129Z,83.10
2022-09-07T17:32:24.609Z,83.20
2022-09-07T17:34:53.157Z,83.80
2022-09-07T17:37:21.577Z,85.40
2022-09-07T17:39:49.724Z,86.20
2022-09-07T17:42:17.761Z,87.10
2022-09-07T17:44:45.768Z,87.00
2022-09-07T17:47:15.224Z,87.70
2022-09-07T17:49:44.969Z,88.00
2022-09-07T17:52:13.237Z,88.10
2022-09-07T17:54:42.033Z,87.80
2022-09-07T17:57:10.488Z,87.10
2022-09-07T18:02:28.039Z,87.00
2022-09-07T18:04:57.168Z,87.40
2022-09-07T18:07:25.803Z,87.40
2022-09-07T18:09:53.687Z,88.00
2022-09-07T18:12:24.820Z,87.90
2022-09-07T18:14:55.906Z,87.50
2022-09-07T18:17:23.964Z,87.40
2022-09-07T18:19:53.337Z,87.70
2022-09-07T18:22:21.773Z,88.40
2022-09-07T18:24:51.053Z,88.80
2022-09-07T18:27:21.174Z,89.10
2022-09-07T18:29:49.055Z,90.00
2022-09-07T18:32:17.758Z,90.30
2022-09-07T18:34:50.431Z,90.90
2022-09-07T18:37:20.380Z,90.60
2022-09-07T18:39:48.653Z,90.70
2022-09-07T18:42:16.695Z,90.70
2022-09-07T18:47:32.405Z,90.80
2022-09-07T18:50:00.573Z,91.30
2022-09-07T18:55:19.047Z,92.00
2022-09-07T18:57:47.715Z,91.90
2022-09-07T19:00:17.992Z,91.70
2022-09-07T19:02:52.882Z,91.80
2022-09-07T19:08:14.787Z,92.10
2022-09-07T19:10:44.742Z,92.00
2022-09-07T19:13:14.181Z,92.10
2022-09-07T19:15:46.634Z,92.30
2022-09-07T19:18:15.546Z,92.40
2022-09-07T19:20:47.402Z,92.30
2022-09-07T19:23:16.796Z,92.20
2022-09-07T19:25:44.716Z,92.50
2022-09-07T19:28:12.631Z,92.70
2022-09-07T19:30:40.840Z,92.60
2022-09-07T19:33:11.987Z,92.50
2022-09-07T19:35:39.886Z,92.70
2022-09-07T19:38:07.778Z,92.80
2022-09-07T19:40:37.062Z,93.10
2022-09-07T19:43:05.297Z,93.10
2022-09-07T19:45:33.274Z,93.10
2022-09-07T19:48:01.243Z,93.20
2022-09-07T19:50:29.296Z,93.20
2022-09-07T19:52:57.334Z,93.30
2022-09-07T19:55:25.444Z,93.40
2022-09-07T19:57:54.705Z,93.60
2022-09-07T20:00:23.065Z,93.90
2022-09-07T20:02:52.222Z,94.20
2022-09-07T20:05:20.249Z,94.40
2022-09-07T20:07:48.160Z,94.70
2022-09-07T20:10:16.405Z,95.00
2022-09-07T20:12:44.322Z,95.20
2022-09-07T20:15:13.640Z,95.40
2022-09-07T20:17:41.540Z,95.60
2022-09-07T20:20:10.402Z,95.60
2022-09-07T20:22:38.310Z,95.60
2022-09-07T20:25:10.183Z,95.60
2022-09-07T20:27:40.645Z,95.80
2022-09-07T20:30:09.633Z,95.90
2022-09-07T20:32:38.952Z,95.90
2022-09-07T20:35:07.557Z,96.00
2022-09-07T20:37:35.545Z,96.10
2022-09-07T20:40:03.952Z,96.10
2022-09-07T20:42:31.912Z,96.10
2022-09-07T20:44:59.745Z,96.10
2022-09-07T20:47:28.814Z,96.30
2022-09-07T20:49:58.191Z,96.50
2022-09-07T20:52:26.525Z,96.60
2022-09-07T20:54:54.438Z,96.90
2022-09-07T20:57:22.343Z,97.00
2022-09-07T20:59:50.281Z,96.90
2022-09-07T21:02:18.262Z,96.80
2022-09-07T21:04:46.234Z,96.90
2022-09-07T21:07:15.478Z,97.00
2022-09-07T21:09:43.384Z,97.10
2022-09-07T21:12:11.442Z,97.30
2022-09-07T21:14:40.164Z,97.50
2022-09-07T21:17:08.107Z,97.70
2022-09-07T21:19:36.804Z,97.80
2022-09-07T21:22:04.733Z,98.00
2022-09-07T21:24:33.989Z,98.10
2022-09-07T21:27:01.892Z,98.10
2022-09-07T21:29:29.863Z,97.80
2022-09-07T21:31:57.888Z,97.60
2022-09-07T21:34:25.922Z,97.70
2022-09-07T21:36:53.941Z,97.80
2022-09-07T21:39:21.879Z,98.50
2022-09-07T21:41:51.315Z,98.60
2022-09-07T21:44:20.346Z,98.90
2022-09-07T21:46:48.522Z,99.10
2022-09-07T21:49:16.525Z,99.20
2022-09-07T21:51:44.432Z,99.70
2022-09-07T21:54:12.554Z,99.80
2022-09-07T21:56:45.851Z,99.90
2022-09-07T21:59:16.027Z,99.90
2022-09-07T22:01:44.155Z,99.90
2022-09-07T22:04:12.213Z,99.90
2022-09-07T22:06:41.113Z,99.90
2022-09-07T22:09:09.048Z,99.90
2022-09-07T22:11:37.007Z,99.90
2022-09-07T22:14:05.989Z,99.90
2022-09-07T22:16:36.085Z,99.90
2022-09-07T22:19:04.517Z,99.90
2022-09-07T22:21:32.668Z,99.90
2022-09-07T22:24:02.518Z,99.90
2022-09-07T22:26:32.815Z,99.90
2022-09-07T22:29:00.913Z,99.90
2022-09-07T22:31:31.025Z,99.90
2022-09-07T22:34:01.899Z,99.90
2022-09-07T22:36:32.293Z,99.90
2022-09-07T22:39:02.206Z,99.90
2022-09-07T22:41:32.030Z,99.90
2022-09-07T22:44:00.014Z,99.90
2022-09-07T22:46:30.159Z,99.90
2022-09-07T22:49:00.201Z,99.90
2022-09-07T22:51:28.874Z,99.90
2022-09-07T22:53:57.869Z,99.90
2022-09-07T22:56:28.169Z,99.90
2022-09-07T22:58:58.150Z,99.90
2022-09-07T23:01:26.749Z,99.90
2022-09-07T23:03:55.534Z,99.90
2022-09-07T23:06:27.224Z,99.90
2022-09-07T23:08:57.125Z,99.90
2022-09-07T23:11:25.561Z,99.90
2022-09-07T23:13:54.215Z,99.90
2022-09-07T23:16:22.924Z,99.90
2022-09-07T23:18:51.319Z,99.90
2022-09-07T23:21:19.248Z,99.90
2022-09-07T23:23:52.268Z,99.90
2022-09-07T23:26:20.547Z,99.90
2022-09-07T23:28:52.389Z,99.90
2022-09-07T23:31:20.576Z,99.90
2022-09-07T23:33:48.773Z,99.90
2022-09-07T23:36:17.406Z,99.90
2022-09-07T23:38:45.425Z,99.90
2022-09-07T23:41:15.243Z,99.90
2022-09-07T23:43:44.026Z,99.90
2022-09-07T23:46:13.120Z,99.90
2022-09-07T23:48:41.137Z,99.90
2022-09-07T23:51:08.998Z,99.90
2022-09-07T23:53:37.027Z,99.90
2022-09-07T23:56:05.276Z,99.90
2022-09-07T23:58:34.761Z,99.90
